THY890 UZTT-LTAI
Flight info
| Callsign | THY890 |
|---|---|
| Flight time | N/A |
| Altitude | 36000 |
| Route | DIBAD2A DIBAD N193 OGOLI T898 DARVA/N0487F360 B476 UGLEP/N0488F380 B476 METKA L88 RASAM N199 LUSAL M11 EDATA N161 INDUR UB374 ERZ UA4 SIV UT54 HALIL/N0479F390 UW77 HISAR |
| Aircraft | B77W/H-SDE1E2E3FGHIJ2J3J4J5M1RWXY/LB1D1 |
Departure
| Time | N/A |
|---|---|
| Airport | Tashkent International Airport (UZTT) |
Arrival
| Time | 2026-05-07 16:06 |
|---|---|
| Airport | Antalya International Airport (LTAI) |
| Time | Latitude | Longitude | Altitude | Speed | Heading |
|---|---|---|---|---|---|
| 2026-05-07 15:33 | 39.23363 | 32.25473 | 39211 ft | 493 kts | 211° |
| 2026-05-07 15:33 | 39.20337 | 32.23526 | 39201 ft | 492 kts | 211° |
| 2026-05-07 15:34 | 39.14228 | 32.19587 | 39187 ft | 492 kts | 211° |
| 2026-05-07 15:34 | 39.08108 | 32.15637 | 39191 ft | 491 kts | 211° |
| 2026-05-07 15:35 | 39.01983 | 32.11684 | 38910 ft | 492 kts | 211° |
| 2026-05-07 15:35 | 38.98918 | 32.09708 | 38715 ft | 490 kts | 211° |
| 2026-05-07 15:35 | 38.95864 | 32.07741 | 38514 ft | 490 kts | 211° |
| 2026-05-07 15:36 | 38.92845 | 32.05796 | 38320 ft | 489 kts | 211° |
| 2026-05-07 15:36 | 38.89820 | 32.03850 | 38296 ft | 488 kts | 211° |
| 2026-05-07 15:36 | 38.83667 | 31.99895 | 38335 ft | 491 kts | 211° |
| 2026-05-07 15:37 | 38.77534 | 31.95962 | 38354 ft | 491 kts | 211° |
| 2026-05-07 15:37 | 38.71407 | 31.92039 | 38298 ft | 492 kts | 211° |
| 2026-05-07 15:38 | 38.65295 | 31.88134 | 38208 ft | 490 kts | 211° |
| 2026-05-07 15:38 | 38.59177 | 31.84232 | 38142 ft | 489 kts | 211° |
| 2026-05-07 15:39 | 38.56148 | 31.82304 | 38286 ft | 487 kts | 211° |
| 2026-05-07 15:39 | 38.53125 | 31.80380 | 38465 ft | 488 kts | 211° |
| 2026-05-07 15:39 | 38.50086 | 31.78447 | 38646 ft | 490 kts | 211° |
| 2026-05-07 15:39 | 38.47051 | 31.76519 | 38839 ft | 491 kts | 211° |
| 2026-05-07 15:40 | 38.43954 | 31.74554 | 39058 ft | 490 kts | 211° |
| 2026-05-07 15:40 | 38.40923 | 31.72633 | 39234 ft | 491 kts | 211° |
| 2026-05-07 15:40 | 38.34824 | 31.68773 | 39267 ft | 490 kts | 211° |
| 2026-05-07 15:41 | 38.28684 | 31.64893 | 39260 ft | 489 kts | 211° |
| 2026-05-07 15:41 | 38.22617 | 31.61068 | 39255 ft | 487 kts | 211° |
| 2026-05-07 15:42 | 38.16505 | 31.57221 | 39264 ft | 488 kts | 211° |
| 2026-05-07 15:42 | 38.10102 | 31.54360 | 39270 ft | 492 kts | 194° |
| 2026-05-07 15:43 | 38.06706 | 31.53826 | 38957 ft | 492 kts | 187° |
| 2026-05-07 15:43 | 38.03247 | 31.53577 | 38516 ft | 490 kts | 187° |
| 2026-05-07 15:43 | 37.99870 | 31.53363 | 38104 ft | 487 kts | 187° |
| 2026-05-07 15:43 | 37.96516 | 31.53153 | 37688 ft | 483 kts | 187° |
| 2026-05-07 15:44 | 37.93192 | 31.52945 | 37256 ft | 479 kts | 187° |
| 2026-05-07 15:44 | 37.89875 | 31.52691 | 36878 ft | 473 kts | 191° |
| 2026-05-07 15:44 | 37.83523 | 31.50466 | 36787 ft | 477 kts | 210° |
| 2026-05-07 15:45 | 37.80622 | 31.48440 | 36538 ft | 483 kts | 219° |
| 2026-05-07 15:45 | 37.77993 | 31.45910 | 35920 ft | 470 kts | 228° |
| 2026-05-07 15:45 | 37.75765 | 31.43004 | 35361 ft | 451 kts | 237° |
| 2026-05-07 15:45 | 37.73823 | 31.39923 | 34959 ft | 434 kts | 238° |
| 2026-05-07 15:46 | 37.70180 | 31.34042 | 33578 ft | 421 kts | 238° |
| 2026-05-07 15:46 | 37.68380 | 31.31136 | 32831 ft | 417 kts | 238° |
| 2026-05-07 15:46 | 37.66604 | 31.28268 | 31984 ft | 413 kts | 238° |
| 2026-05-07 15:47 | 37.64989 | 31.25335 | 31025 ft | 402 kts | 248° |
| 2026-05-07 15:47 | 37.63871 | 31.22232 | 30123 ft | 390 kts | 258° |
| 2026-05-07 15:47 | 37.63251 | 31.18980 | 29244 ft | 378 kts | 269° |
| 2026-05-07 15:47 | 37.63155 | 31.15748 | 28351 ft | 367 kts | 280° |
| 2026-05-07 15:48 | 37.63579 | 31.12612 | 27430 ft | 357 kts | 291° |
| 2026-05-07 15:48 | 37.64482 | 31.09766 | 26524 ft | 349 kts | 302° |
| 2026-05-07 15:48 | 37.65834 | 31.07263 | 25609 ft | 342 kts | 313° |
| 2026-05-07 15:48 | 37.67531 | 31.05262 | 24631 ft | 338 kts | 324° |
| 2026-05-07 15:49 | 37.69552 | 31.03773 | 23645 ft | 335 kts | 336° |
| 2026-05-07 15:49 | 37.71757 | 31.02929 | 22687 ft | 335 kts | 348° |
| 2026-05-07 15:49 | 37.74059 | 31.02794 | 21746 ft | 337 kts | 1° |
| 2026-05-07 15:49 | 37.76350 | 31.03422 | 20835 ft | 341 kts | 16° |
| 2026-05-07 15:50 | 37.78464 | 31.04837 | 19954 ft | 347 kts | 32° |
| 2026-05-07 15:50 | 37.80176 | 31.06930 | 19101 ft | 353 kts | 48° |
| 2026-05-07 15:50 | 37.81390 | 31.09659 | 18234 ft | 359 kts | 65° |
| 2026-05-07 15:50 | 37.81917 | 31.12718 | 17405 ft | 362 kts | 83° |
| 2026-05-07 15:51 | 37.81703 | 31.15895 | 16395 ft | 369 kts | 102° |
| 2026-05-07 15:51 | 37.80734 | 31.18942 | 15116 ft | 383 kts | 120° |
| 2026-05-07 15:51 | 37.79027 | 31.21587 | 14697 ft | 400 kts | 136° |
| 2026-05-07 15:51 | 37.76818 | 31.23746 | 14671 ft | 404 kts | 148° |
| 2026-05-07 15:52 | 37.74292 | 31.25366 | 14674 ft | 404 kts | 159° |
| 2026-05-07 15:52 | 37.71622 | 31.26363 | 14651 ft | 401 kts | 170° |
| 2026-05-07 15:52 | 37.68854 | 31.26708 | 14624 ft | 399 kts | 181° |
| 2026-05-07 15:52 | 37.66097 | 31.26402 | 14503 ft | 397 kts | 192° |
| 2026-05-07 15:53 | 37.63456 | 31.25481 | 14178 ft | 387 kts | 202° |
| 2026-05-07 15:53 | 37.61059 | 31.24008 | 13580 ft | 383 kts | 214° |
| 2026-05-07 15:53 | 37.58950 | 31.21984 | 12977 ft | 377 kts | 225° |
| 2026-05-07 15:53 | 37.57252 | 31.19523 | 12410 ft | 370 kts | 237° |
| 2026-05-07 15:54 | 37.55894 | 31.16797 | 11904 ft | 363 kts | 241° |
| 2026-05-07 15:54 | 37.54637 | 31.14161 | 11582 ft | 344 kts | 241° |
| 2026-05-07 15:54 | 37.53443 | 31.11649 | 11134 ft | 324 kts | 241° |
| 2026-05-07 15:54 | 37.52305 | 31.09259 | 10836 ft | 314 kts | 241° |
| 2026-05-07 15:55 | 37.51197 | 31.06936 | 10552 ft | 309 kts | 241° |
| 2026-05-07 15:55 | 37.50102 | 31.04639 | 10364 ft | 300 kts | 241° |
| 2026-05-07 15:55 | 37.49051 | 31.02435 | 10220 ft | 290 kts | 241° |
| 2026-05-07 15:55 | 37.48019 | 31.00279 | 10050 ft | 283 kts | 241° |
| 2026-05-07 15:56 | 37.47001 | 30.98147 | 9685 ft | 283 kts | 241° |
| 2026-05-07 15:56 | 37.45989 | 30.96020 | 9301 ft | 285 kts | 241° |
| 2026-05-07 15:56 | 37.44958 | 30.93906 | 8925 ft | 285 kts | 236° |
| 2026-05-07 15:56 | 37.43494 | 30.92242 | 8555 ft | 288 kts | 210° |
| 2026-05-07 15:57 | 37.41653 | 30.91245 | 8230 ft | 287 kts | 200° |
| 2026-05-07 15:57 | 37.39784 | 30.90436 | 7898 ft | 286 kts | 199° |
| 2026-05-07 15:57 | 37.37893 | 30.89637 | 7555 ft | 286 kts | 199° |
| 2026-05-07 15:57 | 37.36000 | 30.88833 | 7230 ft | 285 kts | 199° |
| 2026-05-07 15:58 | 37.34119 | 30.88033 | 6910 ft | 285 kts | 199° |
| 2026-05-07 15:58 | 37.32251 | 30.87238 | 6579 ft | 285 kts | 199° |
| 2026-05-07 15:58 | 37.30347 | 30.86510 | 6245 ft | 285 kts | 194° |
| 2026-05-07 15:58 | 37.28416 | 30.85984 | 5910 ft | 284 kts | 192° |
| 2026-05-07 15:59 | 37.26454 | 30.85532 | 5580 ft | 283 kts | 189° |
| 2026-05-07 15:59 | 37.24555 | 30.85180 | 5472 ft | 272 kts | 190° |
| 2026-05-07 15:59 | 37.22740 | 30.84740 | 5401 ft | 258 kts | 193° |
| 2026-05-07 15:59 | 37.21054 | 30.84214 | 5311 ft | 243 kts | 195° |
| 2026-05-07 16:00 | 37.19456 | 30.83694 | 5193 ft | 231 kts | 195° |
| 2026-05-07 16:00 | 37.17904 | 30.83276 | 4938 ft | 226 kts | 192° |
| 2026-05-07 16:00 | 37.16391 | 30.82930 | 4893 ft | 210 kts | 190° |
| 2026-05-07 16:00 | 37.14965 | 30.82670 | 4677 ft | 205 kts | 188° |
| 2026-05-07 16:01 | 37.13563 | 30.82462 | 4432 ft | 200 kts | 186° |
| 2026-05-07 16:01 | 37.12205 | 30.82289 | 4185 ft | 195 kts | 187° |
| 2026-05-07 16:01 | 37.10862 | 30.82104 | 3943 ft | 192 kts | 187° |
| 2026-05-07 16:01 | 37.09528 | 30.81924 | 3705 ft | 189 kts | 187° |
| 2026-05-07 16:02 | 37.08247 | 30.81753 | 3478 ft | 185 kts | 187° |
| 2026-05-07 16:02 | 37.06973 | 30.81583 | 3255 ft | 183 kts | 187° |
| 2026-05-07 16:02 | 37.05730 | 30.81414 | 3012 ft | 175 kts | 187° |
| 2026-05-07 16:02 | 37.04570 | 30.81256 | 2796 ft | 162 kts | 188° |
| 2026-05-07 16:03 | 37.03462 | 30.81104 | 2583 ft | 158 kts | 188° |
| 2026-05-07 16:03 | 37.02386 | 30.80957 | 2374 ft | 155 kts | 188° |
| 2026-05-07 16:03 | 37.01303 | 30.80808 | 2156 ft | 154 kts | 188° |
| 2026-05-07 16:03 | 37.00239 | 30.80662 | 1945 ft | 154 kts | 188° |
| 2026-05-07 16:04 | 36.99175 | 30.80523 | 1706 ft | 153 kts | 187° |
| 2026-05-07 16:04 | 36.98108 | 30.80380 | 1489 ft | 155 kts | 188° |
| 2026-05-07 16:04 | 36.97051 | 30.80220 | 1277 ft | 152 kts | 187° |
| 2026-05-07 16:04 | 36.95995 | 30.80078 | 1062 ft | 151 kts | 186° |
| 2026-05-07 16:05 | 36.94944 | 30.79934 | 867 ft | 156 kts | 185° |
| 2026-05-07 16:05 | 36.93867 | 30.79791 | 661 ft | 152 kts | 184° |
| 2026-05-07 16:05 | 36.92808 | 30.79644 | 467 ft | 152 kts | 184° |
| 2026-05-07 16:05 | 36.91748 | 30.79501 | 263 ft | 153 kts | 184° |
| 2026-05-07 16:06 | 36.90736 | 30.79367 | 192 ft | 130 kts | 185° |
| 2026-05-07 16:06 | 36.90018 | 30.79267 | 192 ft | 77 kts | 186° |
| 2026-05-07 16:06 | 36.89689 | 30.79220 | 192 ft | 27 kts | 186° |
| 2026-05-07 16:06 | 36.89593 | 30.79233 | 192 ft | 7 kts | 160° |
| 2026-05-07 16:07 | 36.89542 | 30.79259 | 192 ft | 8 kts | 157° |
| 2026-05-07 16:07 | 36.89525 | 30.79268 | 192 ft | 0 kts | 157° |
| 2026-05-07 16:07 | 36.89484 | 30.79290 | 192 ft | 7 kts | 156° |
| 2026-05-07 16:07 | 36.89461 | 30.79303 | 192 ft | 2 kts | 156° |
| 2026-05-07 16:08 | 36.89446 | 30.79312 | 192 ft | 2 kts | 155° |
| 2026-05-07 16:08 | 36.89430 | 30.79321 | 192 ft | 0 kts | 155° |
| 2026-05-07 16:08 | 36.89425 | 30.79323 | 192 ft | 1 kts | 155° |
| 2026-05-07 16:08 | 36.89418 | 30.79329 | 192 ft | 1 kts | 148° |
| 2026-05-07 16:09 | 36.89409 | 30.79338 | 192 ft | 3 kts | 123° |
| 2026-05-07 16:09 | 36.89428 | 30.79395 | 192 ft | 10 kts | 26° |
| 2026-05-07 16:09 | 36.89508 | 30.79416 | 192 ft | 7 kts | 7° |
| 2026-05-07 16:09 | 36.89565 | 30.79425 | 192 ft | 6 kts | 7° |
| 2026-05-07 16:10 | 36.89606 | 30.79431 | 192 ft | 6 kts | 7° |
| 2026-05-07 16:10 | 36.89687 | 30.79443 | 192 ft | 18 kts | 6° |
| 2026-05-07 16:10 | 36.89770 | 30.79453 | 192 ft | 1 kts | 5° |
| 2026-05-07 16:10 | 36.89779 | 30.79455 | 192 ft | 1 kts | 6° |
| 2026-05-07 16:11 | 36.89798 | 30.79457 | 192 ft | 6 kts | 6° |
| 2026-05-07 16:11 | 36.89845 | 30.79463 | 192 ft | 3 kts | 14° |
| 2026-05-07 16:11 | 36.89855 | 30.79499 | 192 ft | 5 kts | 95° |
| 2026-05-07 16:11 | 36.89851 | 30.79522 | 192 ft | 3 kts | 118° |
| 2026-05-07 16:12 | 36.89806 | 30.79543 | 192 ft | 7 kts | 174° |
| 2026-05-07 16:12 | 36.89755 | 30.79540 | 192 ft | 7 kts | 186° |
| 2026-05-07 16:12 | 36.89714 | 30.79536 | 192 ft | 8 kts | 181° |
| 2026-05-07 16:12 | 36.89666 | 30.79578 | 192 ft | 7 kts | 111° |
| 2026-05-07 16:13 | 36.89654 | 30.79641 | 192 ft | 7 kts | 97° |
| 2026-05-07 16:13 | 36.89648 | 30.79708 | 192 ft | 7 kts | 95° |
| 2026-05-07 16:13 | 36.89643 | 30.79778 | 192 ft | 8 kts | 96° |
| 2026-05-07 16:13 | 36.89640 | 30.79805 | 192 ft | 1 kts | 96° |
| 2026-05-07 16:14 | 36.89640 | 30.79811 | 192 ft | 0 kts | 95° |
| 2026-05-07 16:14 | 36.89640 | 30.79815 | 192 ft | 1 kts | 95° |
| 2026-05-07 16:14 | 36.89655 | 30.79875 | 192 ft | 7 kts | 45° |
| 2026-05-07 16:14 | 36.89693 | 30.79925 | 192 ft | 6 kts | 53° |
| 2026-05-07 16:15 | 36.89709 | 30.79957 | 192 ft | 3 kts | 60° |
| 2026-05-07 16:15 | 36.89723 | 30.79988 | 192 ft | 4 kts | 61° |
| 2026-05-07 16:15 | 36.89732 | 30.80009 | 192 ft | 0 kts | 61° |